createdAt,value
2019-05-19T00:00:50.591Z,0.00
2019-05-19T00:01:50.582Z,0.00
2019-05-19T00:02:50.605Z,0.00
2019-05-19T00:03:50.576Z,0.00
2019-05-19T00:04:50.541Z,0.00
2019-05-19T00:05:50.519Z,0.00
2019-05-19T00:06:50.560Z,0.00
2019-05-19T00:07:50.494Z,0.00
2019-05-19T00:08:50.484Z,0.00
2019-05-19T00:09:50.467Z,0.00
2019-05-19T00:10:50.457Z,0.00
2019-05-19T00:11:50.484Z,0.00
2019-05-19T00:12:50.429Z,0.00
2019-05-19T00:13:50.418Z,0.00
2019-05-19T00:14:50.408Z,0.00
2019-05-19T00:15:50.399Z,0.00
2019-05-19T00:16:50.429Z,0.00
2019-05-19T00:17:50.396Z,0.00
2019-05-19T00:18:50.368Z,0.00
2019-05-19T00:19:50.351Z,0.00
2019-05-19T00:20:50.344Z,0.00
2019-05-19T00:21:50.357Z,0.00
2019-05-19T00:22:50.315Z,0.00
2019-05-19T00:23:50.328Z,0.00
2019-05-19T00:24:50.300Z,0.00
2019-05-19T00:25:50.286Z,0.00
2019-05-19T00:26:50.296Z,0.00
2019-05-19T00:27:50.267Z,0.00
2019-05-19T00:28:50.254Z,0.00
2019-05-19T00:29:50.261Z,0.00
2019-05-19T00:30:50.226Z,0.00
2019-05-19T00:31:50.250Z,0.00
2019-05-19T00:32:50.206Z,0.00
2019-05-19T00:33:50.192Z,0.00
2019-05-19T00:34:50.207Z,0.00
2019-05-19T00:35:50.190Z,0.00
2019-05-19T00:36:50.191Z,0.00
2019-05-19T00:37:50.152Z,0.00
2019-05-19T00:38:50.172Z,0.00
2019-05-19T00:39:50.147Z,0.00
2019-05-19T00:40:50.142Z,0.00
2019-05-19T00:41:50.105Z,0.00
2019-05-19T00:42:50.140Z,0.00
2019-05-19T00:43:50.108Z,0.00
2019-05-19T00:44:50.101Z,0.00
2019-05-19T00:45:50.080Z,0.00
2019-05-19T00:46:50.072Z,0.00
2019-05-19T00:47:50.085Z,0.00
2019-05-19T00:48:50.064Z,0.00
2019-05-19T00:49:50.050Z,0.00
2019-05-19T00:50:50.039Z,0.00
2019-05-19T00:51:50.023Z,0.00
2019-05-19T00:52:50.035Z,0.00
2019-05-19T00:53:50.008Z,0.00
2019-05-19T00:54:49.959Z,0.00
2019-05-19T00:55:49.950Z,0.00
2019-05-19T00:56:49.937Z,0.00
2019-05-19T00:57:49.941Z,0.00
2019-05-19T00:58:49.914Z,0.00
2019-05-19T00:59:49.918Z,0.00
2019-05-19T01:00:49.896Z,0.00
2019-05-19T01:01:49.891Z,0.00
2019-05-19T01:02:49.895Z,0.00
2019-05-19T01:03:49.867Z,0.00
2019-05-19T01:04:49.841Z,0.00
2019-05-19T01:05:49.840Z,0.00
2019-05-19T01:06:49.836Z,0.00
2019-05-19T01:07:49.833Z,0.00
2019-05-19T01:08:49.809Z,0.00
2019-05-19T01:09:49.791Z,0.00
2019-05-19T01:10:49.781Z,0.00
2019-05-19T01:11:49.784Z,0.00
2019-05-19T01:12:49.788Z,0.00
2019-05-19T01:13:49.747Z,0.00
2019-05-19T01:14:49.736Z,0.00
2019-05-19T01:15:49.726Z,0.00
2019-05-19T01:16:49.711Z,0.00
2019-05-19T01:17:49.764Z,0.00
2019-05-19T01:18:49.695Z,0.00
2019-05-19T01:19:56.024Z,0.00
2019-05-19T01:20:50.667Z,0.00
2019-05-19T01:21:49.659Z,0.00
2019-05-19T01:22:49.684Z,0.00
2019-05-19T01:23:49.653Z,0.00
2019-05-19T01:24:49.629Z,0.00
2019-05-19T01:25:49.615Z,0.00
2019-05-19T01:26:49.599Z,0.00
2019-05-19T01:27:49.632Z,0.00
2019-05-19T01:28:49.610Z,0.00
2019-05-19T01:29:49.583Z,0.00
2019-05-19T01:30:49.583Z,0.00
2019-05-19T01:31:49.546Z,0.00
2019-05-19T01:32:49.554Z,0.00
2019-05-19T01:33:49.524Z,0.00
2019-05-19T01:34:49.511Z,0.00
2019-05-19T01:35:49.512Z,0.00
2019-05-19T01:36:49.485Z,0.00
2019-05-19T01:37:49.493Z,0.00
2019-05-19T01:38:49.475Z,0.00
2019-05-19T01:39:49.456Z,0.00
2019-05-19T01:40:49.462Z,0.00
2019-05-19T01:41:49.432Z,0.00
2019-05-19T01:42:49.467Z,0.00
2019-05-19T01:43:49.410Z,0.00
2019-05-19T01:44:49.392Z,0.00
2019-05-19T01:45:49.385Z,0.00
2019-05-19T01:46:49.395Z,0.00
2019-05-19T01:47:49.411Z,0.00
2019-05-19T01:48:49.358Z,0.00
2019-05-19T01:49:49.344Z,0.00
2019-05-19T01:50:49.336Z,0.00
2019-05-19T01:51:49.317Z,0.00
2019-05-19T01:52:49.392Z,0.00
2019-05-19T01:53:49.299Z,0.00
2019-05-19T01:54:49.286Z,0.00
2019-05-19T01:55:49.277Z,0.00
2019-05-19T01:56:49.284Z,0.00
2019-05-19T01:57:49.260Z,0.00
2019-05-19T01:58:49.296Z,0.00
2019-05-19T01:59:49.227Z,0.00
2019-05-19T02:00:49.217Z,0.00
2019-05-19T02:01:49.208Z,0.00
2019-05-19T02:02:49.194Z,0.00
2019-05-19T02:03:49.211Z,0.00
2019-05-19T02:04:49.192Z,0.00
2019-05-19T02:05:49.166Z,0.00
2019-05-19T02:06:49.151Z,0.00
2019-05-19T02:07:49.143Z,0.00
2019-05-19T02:08:49.146Z,0.00
2019-05-19T02:09:49.121Z,0.00
2019-05-19T02:10:49.125Z,0.00
2019-05-19T02:11:49.131Z,0.00
2019-05-19T02:12:49.096Z,0.00
2019-05-19T02:13:49.097Z,0.00
2019-05-19T02:14:49.095Z,0.00
2019-05-19T02:15:49.108Z,0.00
2019-05-19T02:16:49.056Z,0.00
2019-05-19T02:17:49.041Z,0.00
2019-05-19T02:18:49.094Z,0.00
2019-05-19T02:19:49.094Z,0.00
2019-05-19T02:20:48.998Z,0.00
2019-05-19T02:21:48.991Z,0.00
2019-05-19T02:22:49.005Z,0.00
2019-05-19T02:23:48.965Z,0.00
2019-05-19T02:24:49.002Z,0.00
2019-05-19T02:25:48.944Z,0.00
2019-05-19T02:26:48.929Z,0.00
2019-05-19T02:27:48.915Z,0.00
2019-05-19T02:28:48.912Z,0.00
2019-05-19T02:29:48.945Z,0.00
2019-05-19T02:30:48.915Z,0.00
2019-05-19T02:31:48.870Z,0.00
2019-05-19T02:32:48.864Z,0.00
2019-05-19T02:33:48.869Z,0.00
2019-05-19T02:34:48.886Z,0.00
2019-05-19T02:35:48.863Z,0.00
2019-05-19T02:36:48.848Z,0.00
2019-05-19T02:37:48.825Z,0.00
2019-05-19T02:38:48.875Z,0.00
2019-05-19T02:39:48.806Z,0.00
2019-05-19T02:40:48.772Z,0.00
2019-05-19T02:41:48.763Z,0.00
2019-05-19T02:42:48.756Z,0.00
2019-05-19T02:43:48.738Z,0.00
2019-05-19T02:44:48.761Z,0.00
2019-05-19T02:45:48.715Z,0.00
2019-05-19T02:46:48.704Z,0.00
2019-05-19T02:47:48.754Z,0.00
2019-05-19T02:48:48.689Z,0.00
2019-05-19T02:49:48.717Z,0.00
2019-05-19T02:50:52.625Z,0.00
2019-05-19T02:51:48.649Z,0.00
2019-05-19T02:52:48.657Z,0.00
2019-05-19T02:53:48.629Z,4.00
2019-05-19T02:54:48.650Z,4.00
2019-05-19T02:55:48.609Z,0.00
2019-05-19T02:56:48.613Z,0.00
2019-05-19T02:57:48.592Z,0.00
2019-05-19T02:58:48.588Z,4.00
2019-05-19T02:59:48.585Z,4.00
2019-05-19T03:02:04.455Z,4.00
2019-05-19T03:03:04.459Z,4.00
2019-05-19T03:04:04.406Z,4.00
2019-05-19T03:05:04.409Z,4.00
2019-05-19T03:06:04.379Z,4.00
2019-05-19T03:07:04.370Z,4.00
2019-05-19T03:08:04.351Z,4.00
2019-05-19T03:09:04.359Z,8.00
2019-05-19T03:10:04.385Z,4.00
2019-05-19T03:11:04.323Z,8.00
2019-05-19T03:12:04.324Z,8.00
2019-05-19T03:13:04.300Z,8.00
2019-05-19T03:14:04.296Z,8.00
2019-05-19T03:15:04.293Z,12.00
2019-05-19T03:16:04.259Z,16.00
2019-05-19T03:17:04.265Z,16.00
2019-05-19T03:18:04.236Z,20.00
2019-05-19T03:19:04.223Z,24.00
2019-05-19T03:20:04.280Z,24.00
2019-05-19T03:21:10.940Z,24.00
2019-05-19T03:22:05.194Z,28.00
2019-05-19T03:23:04.189Z,28.00
2019-05-19T03:24:04.171Z,32.00
2019-05-19T03:25:04.190Z,32.00
2019-05-19T03:26:04.155Z,36.00
2019-05-19T03:27:04.135Z,36.00
2019-05-19T03:28:04.158Z,40.00
2019-05-19T03:29:04.133Z,40.00
2019-05-19T03:30:04.130Z,44.00
2019-05-19T03:31:04.093Z,44.00
2019-05-19T03:32:11.274Z,52.00
2019-05-19T03:33:05.243Z,52.00
2019-05-19T03:34:04.074Z,56.00
2019-05-19T03:35:04.101Z,60.00
2019-05-19T03:36:04.034Z,68.00
2019-05-19T03:37:04.022Z,72.00
2019-05-19T03:38:04.017Z,76.00
2019-05-19T03:39:04.007Z,80.00
2019-05-19T03:40:04.032Z,88.00
2019-05-19T03:41:03.986Z,96.00
2019-05-19T03:42:04.064Z,100.00
2019-05-19T03:43:03.958Z,104.00
2019-05-19T03:44:03.953Z,112.00
2019-05-19T03:45:03.935Z,112.00
2019-05-19T03:46:03.961Z,116.00
2019-05-19T03:47:03.919Z,120.00
2019-05-19T03:48:03.908Z,128.00
2019-05-19T03:49:03.889Z,132.00
2019-05-19T03:50:03.876Z,140.00
2019-05-19T03:51:03.896Z,148.00
2019-05-19T03:52:03.865Z,156.00
2019-05-19T03:53:03.850Z,164.00
2019-05-19T03:54:03.845Z,176.00
2019-05-19T03:55:03.824Z,188.00
2019-05-19T03:56:03.830Z,200.00
2019-05-19T03:57:03.803Z,216.00
2019-05-19T03:58:03.810Z,228.00
2019-05-19T03:59:03.778Z,244.00
2019-05-19T04:00:03.773Z,260.00
2019-05-19T04:01:03.779Z,272.00
2019-05-19T04:02:03.751Z,288.00
2019-05-19T04:03:03.753Z,304.00
2019-05-19T04:04:03.727Z,316.00
2019-05-19T04:05:03.717Z,336.00
2019-05-19T04:06:03.722Z,348.00
2019-05-19T04:07:03.692Z,364.00
2019-05-19T04:08:03.689Z,376.00
2019-05-19T04:09:03.704Z,392.00
2019-05-19T04:10:03.675Z,404.00
2019-05-19T04:11:03.730Z,416.00
2019-05-19T04:12:03.670Z,432.00
2019-05-19T04:13:03.654Z,444.00
2019-05-19T04:14:03.611Z,460.00
2019-05-19T04:15:03.636Z,472.00
2019-05-19T04:16:03.632Z,496.00
2019-05-19T04:17:03.600Z,508.00
2019-05-19T04:18:03.594Z,528.00
2019-05-19T04:19:03.564Z,548.00
2019-05-19T04:20:03.591Z,568.00
2019-05-19T04:21:03.575Z,584.00
2019-05-19T04:22:03.527Z,604.00
2019-05-19T04:23:03.519Z,620.00
2019-05-19T04:24:03.513Z,636.00
2019-05-19T04:25:03.521Z,656.00
2019-05-19T04:26:03.475Z,676.00
2019-05-19T04:27:03.495Z,696.00
2019-05-19T04:28:03.451Z,716.00
2019-05-19T04:29:03.440Z,732.00
2019-05-19T04:30:03.471Z,756.00
2019-05-19T04:31:03.421Z,780.00
2019-05-19T04:32:03.458Z,808.00
2019-05-19T04:33:03.413Z,832.00
2019-05-19T04:34:03.391Z,852.00
2019-05-19T04:35:03.376Z,868.00
2019-05-19T04:36:03.373Z,892.00
2019-05-19T04:37:03.379Z,916.00
2019-05-19T04:38:03.346Z,936.00
2019-05-19T04:39:03.374Z,964.00
2019-05-19T04:40:03.378Z,988.00
2019-05-19T04:41:03.312Z,1012.00
2019-05-19T04:42:03.322Z,1036.00
2019-05-19T04:43:03.307Z,1060.00
2019-05-19T04:44:03.282Z,1080.00
2019-05-19T04:45:03.312Z,1104.00
2019-05-19T04:46:03.258Z,1128.00
2019-05-19T04:47:03.269Z,1144.00
2019-05-19T04:48:03.234Z,1164.00
2019-05-19T04:49:03.214Z,1200.00
2019-05-19T04:50:03.213Z,1220.00
2019-05-19T04:51:03.207Z,1244.00
2019-05-19T04:52:07.176Z,1268.00
2019-05-19T04:53:03.184Z,1276.00
2019-05-19T04:54:03.167Z,1288.00
2019-05-19T04:55:03.169Z,1292.00
2019-05-19T04:56:03.145Z,1300.00
2019-05-19T04:57:03.171Z,1312.00
2019-05-19T04:58:03.122Z,1316.00
2019-05-19T04:59:03.110Z,1324.00
2019-05-19T05:00:03.115Z,1332.00
2019-05-19T05:01:03.089Z,1332.00
2019-05-19T05:02:03.106Z,1332.00
2019-05-19T05:03:03.075Z,1332.00
2019-05-19T05:04:03.056Z,1332.00
2019-05-19T05:05:03.048Z,1332.00
2019-05-19T05:06:03.036Z,1332.00
2019-05-19T05:07:03.038Z,1336.00
2019-05-19T05:08:03.012Z,1340.00
2019-05-19T05:09:03.031Z,1344.00
2019-05-19T05:10:02.988Z,1356.00
2019-05-19T05:11:02.979Z,1364.00
2019-05-19T05:12:03.017Z,1376.00
2019-05-19T05:13:02.959Z,1384.00
2019-05-19T05:14:02.958Z,1396.00
2019-05-19T05:15:02.945Z,1400.00
2019-05-19T05:16:02.927Z,1416.00
2019-05-19T05:17:02.940Z,1420.00
2019-05-19T05:18:02.904Z,1424.00
2019-05-19T05:19:02.916Z,1432.00
2019-05-19T05:20:02.881Z,1440.00
2019-05-19T05:21:02.889Z,1448.00
2019-05-19T05:22:02.880Z,1460.00
2019-05-19T05:23:02.847Z,1476.00
2019-05-19T05:24:02.837Z,1496.00
2019-05-19T05:25:02.823Z,1512.00
2019-05-19T05:26:02.833Z,1528.00
2019-05-19T05:27:02.839Z,1540.00
2019-05-19T05:28:02.790Z,1556.00
2019-05-19T05:29:02.789Z,1572.00
2019-05-19T05:30:02.764Z,1616.00
2019-05-19T05:31:02.759Z,1676.00
2019-05-19T05:32:02.811Z,1724.00
2019-05-19T05:33:02.769Z,1768.00
2019-05-19T05:34:02.730Z,1760.00
2019-05-19T05:35:02.711Z,1772.00
2019-05-19T05:36:02.702Z,1752.00
2019-05-19T05:37:02.688Z,1744.00
2019-05-19T05:38:02.696Z,1764.00
2019-05-19T05:39:02.691Z,1784.00
2019-05-19T05:40:02.671Z,1820.00
2019-05-19T05:41:02.648Z,1840.00
2019-05-19T05:42:02.653Z,1860.00
2019-05-19T05:43:02.683Z,1896.00
2019-05-19T05:44:02.638Z,1940.00
2019-05-19T05:45:02.636Z,1992.00
2019-05-19T05:46:02.595Z,2048.00
2019-05-19T05:47:02.583Z,2012.00
2019-05-19T05:48:02.812Z,1964.00
2019-05-19T05:49:02.562Z,1980.00
2019-05-19T05:50:02.577Z,1996.00
2019-05-19T05:51:02.581Z,2024.00
2019-05-19T05:52:02.530Z,2020.00
2019-05-19T05:53:02.567Z,2016.00
2019-05-19T05:54:02.533Z,2012.00
2019-05-19T05:55:02.530Z,2008.00
2019-05-19T05:56:02.508Z,2004.00
2019-05-19T05:57:02.521Z,1996.00
2019-05-19T05:58:02.514Z,2024.00
2019-05-19T05:59:02.461Z,2028.00
2019-05-19T06:00:02.475Z,2080.00
2019-05-19T06:01:02.433Z,2100.00
2019-05-19T06:02:02.421Z,2056.00
2019-05-19T06:03:02.497Z,2096.00
2019-05-19T06:04:02.409Z,2140.00
2019-05-19T06:05:02.388Z,2172.00
2019-05-19T06:06:02.423Z,2212.00
2019-05-19T06:07:02.368Z,2228.00
2019-05-19T06:08:02.379Z,2236.00
2019-05-19T06:09:02.345Z,2260.00
2019-05-19T06:10:02.353Z,2320.00
2019-05-19T06:11:02.322Z,2320.00
2019-05-19T06:12:02.308Z,2320.00
2019-05-19T06:13:02.318Z,2344.00
2019-05-19T06:14:02.291Z,2380.00
2019-05-19T06:15:02.288Z,2416.00
2019-05-19T06:16:02.266Z,2420.00
2019-05-19T06:17:02.252Z,2452.00
2019-05-19T06:18:02.244Z,2464.00
2019-05-19T06:19:02.254Z,2488.00
2019-05-19T06:20:02.678Z,2512.00
2019-05-19T06:21:02.257Z,2540.00
2019-05-19T06:22:02.225Z,2576.00
2019-05-19T06:23:02.192Z,2612.00
2019-05-19T06:24:02.220Z,2612.00
2019-05-19T06:25:02.181Z,2572.00
2019-05-19T06:26:02.149Z,2528.00
2019-05-19T06:27:02.151Z,2536.00
2019-05-19T06:28:02.126Z,2516.00
2019-05-19T06:29:02.141Z,2548.00
2019-05-19T06:30:02.110Z,2556.00
2019-05-19T06:31:02.095Z,2536.00
2019-05-19T06:32:02.110Z,2604.00
2019-05-19T06:33:02.080Z,2664.00
2019-05-19T06:34:02.097Z,2704.00
2019-05-19T06:35:02.562Z,2724.00
2019-05-19T06:36:02.053Z,2756.00
2019-05-19T06:37:02.142Z,2812.00
2019-05-19T06:38:02.480Z,2840.00
2019-05-19T06:39:02.064Z,2812.00
2019-05-19T06:40:02.011Z,2860.00
2019-05-19T06:41:01.982Z,2880.00
2019-05-19T06:42:01.986Z,2868.00
2019-05-19T06:43:01.967Z,2912.00
2019-05-19T06:44:03.486Z,2896.00
2019-05-19T06:45:01.937Z,2848.00
2019-05-19T06:46:01.930Z,2788.00
2019-05-19T06:47:01.929Z,2716.00
2019-05-19T06:48:01.904Z,2648.00
2019-05-19T06:49:01.944Z,2580.00
2019-05-19T06:50:02.194Z,2508.00
2019-05-19T06:51:01.871Z,2508.00
2019-05-19T06:52:01.853Z,2444.00
2019-05-19T06:53:13.306Z,2368.00
2019-05-19T06:54:01.862Z,2328.00
2019-05-19T06:55:01.845Z,2288.00
2019-05-19T06:56:01.823Z,2308.00
2019-05-19T06:57:01.809Z,2208.00
2019-05-19T06:58:01.818Z,2244.00
2019-05-19T06:59:01.848Z,2200.00
2019-05-19T07:00:01.790Z,2176.00
2019-05-19T07:01:01.761Z,2260.00
2019-05-19T07:02:01.767Z,2244.00
2019-05-19T07:03:01.745Z,2356.00
2019-05-19T07:04:01.755Z,2316.00
2019-05-19T07:05:01.880Z,2340.00
2019-05-19T07:06:01.721Z,2372.00
2019-05-19T07:07:01.755Z,2380.00
2019-05-19T07:08:01.703Z,2356.00
2019-05-19T07:09:01.680Z,2340.00
2019-05-19T07:10:01.799Z,2268.00
2019-05-19T07:11:01.697Z,2220.00
2019-05-19T07:12:01.638Z,2164.00
2019-05-19T07:13:01.646Z,2092.00
2019-05-19T07:14:03.067Z,2032.00
2019-05-19T07:15:01.636Z,1972.00
2019-05-19T07:16:01.615Z,1924.00
2019-05-19T07:17:01.583Z,1900.00
2019-05-19T07:18:01.620Z,1888.00
2019-05-19T07:19:01.584Z,1892.00
2019-05-19T07:20:01.635Z,1892.00
2019-05-19T07:21:01.587Z,1892.00
2019-05-19T07:22:01.559Z,1900.00
2019-05-19T07:23:01.580Z,1904.00
2019-05-19T07:24:01.551Z,1912.00
2019-05-19T07:25:01.596Z,1920.00
2019-05-19T07:26:01.479Z,1936.00
2019-05-19T07:27:01.525Z,1932.00
2019-05-19T07:28:01.457Z,1952.00
2019-05-19T07:29:01.498Z,1996.00
2019-05-19T07:30:01.476Z,2020.00
2019-05-19T07:31:01.430Z,2004.00
2019-05-19T07:32:01.440Z,2052.00
2019-05-19T07:33:01.406Z,2224.00
2019-05-19T07:34:01.484Z,2240.00
2019-05-19T07:35:01.438Z,2248.00
2019-05-19T07:36:01.447Z,2312.00
2019-05-19T07:37:01.367Z,2420.00
2019-05-19T07:38:01.368Z,2468.00
2019-05-19T07:39:01.370Z,2504.00
2019-05-19T07:40:01.363Z,2560.00
2019-05-19T07:41:01.342Z,2592.00
2019-05-19T07:42:01.327Z,2636.00
2019-05-19T07:43:01.313Z,2676.00
2019-05-19T07:44:01.291Z,2708.00
2019-05-19T07:45:01.321Z,2748.00
2019-05-19T07:46:01.255Z,2796.00
2019-05-19T07:47:01.270Z,2752.00
2019-05-19T07:48:01.238Z,2728.00
2019-05-19T07:49:01.251Z,2712.00
2019-05-19T07:50:01.322Z,2732.00
2019-05-19T07:51:01.207Z,2724.00
2019-05-19T07:52:01.190Z,2752.00
2019-05-19T07:53:01.204Z,2784.00
2019-05-19T07:54:01.176Z,2796.00
2019-05-19T07:55:01.180Z,2824.00
2019-05-19T07:56:01.211Z,2868.00
2019-05-19T07:57:01.133Z,2900.00
2019-05-19T07:58:01.126Z,2924.00
2019-05-19T07:59:01.110Z,2928.00
2019-05-19T08:00:01.097Z,2920.00
2019-05-19T08:01:01.115Z,2912.00
2019-05-19T08:02:01.106Z,2904.00
2019-05-19T08:03:01.062Z,2872.00
2019-05-19T08:04:01.053Z,2848.00
2019-05-19T08:05:01.050Z,2836.00
2019-05-19T08:06:01.058Z,2840.00
2019-05-19T08:07:01.026Z,2848.00
2019-05-19T08:08:01.039Z,2868.00
2019-05-19T08:09:00.995Z,2888.00
2019-05-19T08:10:00.992Z,2924.00
2019-05-19T08:11:01.063Z,2972.00
2019-05-19T08:12:00.962Z,3028.00
2019-05-19T08:13:00.967Z,3044.00
2019-05-19T08:14:00.956Z,3028.00
2019-05-19T08:15:00.933Z,3016.00
2019-05-19T08:16:01.017Z,3048.00
2019-05-19T08:17:00.906Z,3104.00
2019-05-19T08:18:00.903Z,3136.00
2019-05-19T08:19:00.891Z,3168.00
2019-05-19T08:20:00.898Z,3236.00
2019-05-19T08:21:00.918Z,3292.00
2019-05-19T08:22:00.855Z,3308.00
2019-05-19T08:23:00.844Z,3244.00
2019-05-19T08:24:01.346Z,3164.00
2019-05-19T08:25:00.822Z,3052.00
2019-05-19T08:26:00.842Z,2940.00
2019-05-19T08:27:00.795Z,2828.00
2019-05-19T08:28:08.512Z,2720.00
2019-05-19T08:29:01.773Z,2588.00
2019-05-19T08:30:00.764Z,2548.00
2019-05-19T08:31:00.798Z,2536.00
2019-05-19T08:32:00.753Z,2472.00
2019-05-19T08:33:00.730Z,2404.00
2019-05-19T08:34:00.736Z,2304.00
2019-05-19T08:35:00.712Z,2036.00
2019-05-19T08:36:00.718Z,1828.00
2019-05-19T08:37:00.690Z,1760.00
2019-05-19T08:38:00.693Z,1700.00
2019-05-19T08:39:00.665Z,1764.00
2019-05-19T08:40:00.661Z,1760.00
2019-05-19T08:41:00.714Z,1924.00
2019-05-19T08:42:00.635Z,1996.00
2019-05-19T08:43:00.617Z,2004.00
2019-05-19T08:44:00.624Z,2044.00
2019-05-19T08:45:00.599Z,2012.00
2019-05-19T08:46:00.587Z,2012.00
2019-05-19T08:47:00.622Z,2032.00
2019-05-19T08:48:00.561Z,1996.00
2019-05-19T08:49:00.561Z,2048.00
2019-05-19T08:50:00.560Z,2060.00
2019-05-19T08:51:00.534Z,2132.00
2019-05-19T08:52:00.563Z,2116.00
2019-05-19T08:53:00.546Z,2080.00
2019-05-19T08:54:13.831Z,2136.00
2019-05-19T08:55:01.494Z,2088.00
2019-05-19T08:56:00.494Z,1984.00
2019-05-19T08:57:00.486Z,1860.00
2019-05-19T08:58:00.450Z,1728.00
2019-05-19T08:59:00.447Z,1588.00
2019-05-19T09:00:00.432Z,1652.00
2019-05-19T09:01:00.426Z,1620.00
2019-05-19T09:02:00.448Z,1584.00
2019-05-19T09:03:00.397Z,1548.00
2019-05-19T09:04:00.385Z,1592.00
2019-05-19T09:05:00.372Z,1580.00
2019-05-19T09:06:00.363Z,1604.00
2019-05-19T09:07:00.374Z,1592.00
2019-05-19T09:08:00.358Z,1564.00
2019-05-19T09:09:00.330Z,1656.00
2019-05-19T09:10:00.372Z,1720.00
2019-05-19T09:11:00.304Z,1776.00
2019-05-19T09:12:00.396Z,1824.00
2019-05-19T09:13:00.356Z,1832.00
2019-05-19T09:14:00.284Z,1876.00
2019-05-19T09:15:00.261Z,1932.00
2019-05-19T09:16:00.285Z,1968.00
2019-05-19T09:17:00.280Z,1968.00
2019-05-19T09:18:00.247Z,1964.00
2019-05-19T09:19:00.267Z,1952.00
2019-05-19T09:20:00.250Z,1940.00
2019-05-19T09:21:00.223Z,1908.00
2019-05-19T09:22:00.245Z,1896.00
2019-05-19T09:23:00.206Z,1884.00
2019-05-19T09:24:00.214Z,1872.00
2019-05-19T09:25:00.174Z,1856.00
2019-05-19T09:26:00.150Z,1800.00
2019-05-19T09:27:00.153Z,1760.00
2019-05-19T09:28:00.117Z,1772.00
2019-05-19T09:29:00.132Z,1760.00
2019-05-19T09:30:00.105Z,1728.00
2019-05-19T09:31:00.082Z,1700.00
2019-05-19T09:32:00.085Z,1512.00
2019-05-19T09:33:00.091Z,1600.00
2019-05-19T09:34:00.057Z,1708.00
2019-05-19T09:35:00.042Z,1752.00
2019-05-19T09:36:00.028Z,1764.00
2019-05-19T09:37:00.025Z,1760.00
2019-05-19T09:38:00.032Z,1768.00
2019-05-19T09:39:00.002Z,1728.00
2019-05-19T09:39:59.981Z,1724.00
2019-05-19T09:40:59.977Z,1676.00
2019-05-19T09:41:59.964Z,1652.00
2019-05-19T09:42:59.974Z,1636.00
2019-05-19T09:43:59.972Z,1648.00
2019-05-19T09:44:59.927Z,1680.00
2019-05-19T09:45:59.925Z,1668.00
2019-05-19T09:46:59.922Z,1684.00
2019-05-19T09:47:59.955Z,1680.00
2019-05-19T09:48:59.910Z,1684.00
2019-05-19T09:49:59.873Z,1684.00
2019-05-19T09:50:59.868Z,1684.00
2019-05-19T09:51:59.860Z,1684.00
2019-05-19T09:52:59.875Z,1688.00
2019-05-19T09:53:59.877Z,1696.00
2019-05-19T09:54:59.882Z,1684.00
2019-05-19T09:55:59.813Z,1676.00
2019-05-19T09:56:59.964Z,1684.00
2019-05-19T09:57:59.828Z,1776.00
2019-05-19T09:58:59.826Z,1912.00
2019-05-19T09:59:59.793Z,1908.00
2019-05-19T10:00:59.768Z,1972.00
2019-05-19T10:01:59.748Z,1932.00
2019-05-19T10:02:59.798Z,1924.00
2019-05-19T10:03:59.739Z,1904.00
2019-05-19T10:04:59.713Z,1976.00
2019-05-19T10:05:59.710Z,1968.00
2019-05-19T10:06:59.806Z,1960.00
2019-05-19T10:07:59.708Z,1928.00
2019-05-19T10:08:59.718Z,1900.00
2019-05-19T10:09:59.735Z,1852.00
2019-05-19T10:10:59.647Z,1852.00
2019-05-19T10:11:59.659Z,1828.00
2019-05-19T10:12:59.724Z,1788.00
2019-05-19T10:13:59.636Z,1720.00
2019-05-19T10:14:59.646Z,1648.00
2019-05-19T10:15:59.598Z,1636.00
2019-05-19T10:16:59.581Z,1616.00
2019-05-19T10:17:59.639Z,1600.00
2019-05-19T10:18:59.588Z,1628.00
2019-05-19T10:19:59.602Z,1728.00
2019-05-19T10:20:59.570Z,1780.00
2019-05-19T10:21:59.590Z,1800.00
2019-05-19T10:22:59.585Z,1808.00
2019-05-19T10:23:59.529Z,1788.00
2019-05-19T10:25:19.973Z,1696.00
2019-05-19T10:26:00.561Z,1656.00
2019-05-19T10:26:59.484Z,1700.00
2019-05-19T10:27:59.498Z,1760.00
2019-05-19T10:28:59.495Z,1796.00
2019-05-19T10:29:59.430Z,1816.00
2019-05-19T10:30:59.445Z,1836.00
2019-05-19T10:31:59.425Z,1916.00
2019-05-19T10:32:59.433Z,2056.00
2019-05-19T10:33:59.418Z,2240.00
2019-05-19T10:34:59.399Z,2416.00
2019-05-19T10:35:59.395Z,2556.00
2019-05-19T10:36:59.361Z,2428.00
2019-05-19T10:37:59.347Z,2528.00
2019-05-19T10:38:59.366Z,2512.00
2019-05-19T10:39:59.342Z,2416.00
2019-05-19T10:40:59.316Z,2540.00
2019-05-19T10:41:59.312Z,2644.00
2019-05-19T10:42:59.341Z,2576.00
2019-05-19T10:44:00.853Z,2340.00
2019-05-19T10:44:59.265Z,2124.00
2019-05-19T10:45:59.257Z,1916.00
2019-05-19T10:46:59.256Z,1784.00
2019-05-19T10:47:59.247Z,1700.00
2019-05-19T10:48:59.299Z,1648.00
2019-05-19T10:49:59.212Z,1620.00
2019-05-19T10:50:59.255Z,1608.00
2019-05-19T10:51:59.207Z,1620.00
2019-05-19T10:52:59.182Z,1648.00
2019-05-19T10:53:59.268Z,1692.00
2019-05-19T10:54:59.159Z,1712.00
2019-05-19T10:55:59.140Z,1744.00
2019-05-19T10:56:59.143Z,1800.00
2019-05-19T10:57:59.145Z,1868.00
2019-05-19T10:58:59.206Z,2024.00
2019-05-19T10:59:59.110Z,2184.00
2019-05-19T11:00:59.108Z,2320.00
2019-05-19T11:01:59.113Z,2372.00
2019-05-19T11:02:59.107Z,2280.00
2019-05-19T11:03:59.176Z,2260.00
2019-05-19T11:04:59.051Z,2268.00
2019-05-19T11:05:59.124Z,2276.00
2019-05-19T11:06:59.097Z,2332.00
2019-05-19T11:07:59.063Z,2348.00
2019-05-19T11:08:59.105Z,2408.00
2019-05-19T11:09:59.022Z,2484.00
2019-05-19T11:10:59.010Z,2492.00
2019-05-19T11:11:59.014Z,2424.00
2019-05-19T11:12:59.012Z,2408.00
2019-05-19T11:13:58.999Z,2436.00
2019-05-19T11:14:58.929Z,2320.00
2019-05-19T11:15:58.936Z,2352.00
2019-05-19T11:16:58.942Z,2388.00
2019-05-19T11:17:58.950Z,2412.00
2019-05-19T11:18:58.980Z,2440.00
2019-05-19T11:19:58.898Z,2444.00
2019-05-19T11:20:58.863Z,2516.00
2019-05-19T11:21:58.878Z,2844.00
2019-05-19T11:22:58.880Z,2744.00
2019-05-19T11:23:58.910Z,2800.00
2019-05-19T11:24:58.875Z,2804.00
2019-05-19T11:25:58.855Z,2944.00
2019-05-19T11:26:58.830Z,2816.00
2019-05-19T11:27:58.824Z,2844.00
2019-05-19T11:28:58.798Z,2824.00
2019-05-19T11:29:58.824Z,2836.00
2019-05-19T11:30:58.809Z,2632.00
2019-05-19T11:31:58.767Z,2656.00
2019-05-19T11:32:58.734Z,2680.00
2019-05-19T11:33:58.740Z,2736.00
2019-05-19T11:34:58.737Z,2748.00
2019-05-19T11:35:58.698Z,2692.00
2019-05-19T11:36:58.735Z,2572.00
2019-05-19T11:37:58.708Z,2444.00
2019-05-19T11:38:58.679Z,2420.00
2019-05-19T11:39:58.749Z,2408.00
2019-05-19T11:40:58.642Z,2396.00
2019-05-19T11:41:58.650Z,2404.00
2019-05-19T11:42:58.748Z,2392.00
2019-05-19T11:43:58.651Z,2340.00
2019-05-19T11:44:58.650Z,2276.00
2019-05-19T11:45:58.605Z,2232.00
2019-05-19T11:46:58.596Z,2160.00
2019-05-19T11:47:58.586Z,2100.00
2019-05-19T11:48:58.578Z,2048.00
2019-05-19T11:49:58.655Z,2020.00
2019-05-19T11:50:58.610Z,2036.00
2019-05-19T11:51:58.538Z,1984.00
2019-05-19T11:52:58.504Z,2000.00
2019-05-19T11:53:58.514Z,2152.00
2019-05-19T11:54:58.581Z,2020.00
2019-05-19T11:56:06.084Z,2032.00
2019-05-19T11:56:59.559Z,2056.00
2019-05-19T11:57:58.555Z,2056.00
2019-05-19T11:58:58.564Z,2068.00
2019-05-19T11:59:58.453Z,2064.00
2019-05-19T12:00:58.498Z,2076.00
2019-05-19T12:01:58.427Z,2108.00
2019-05-19T12:02:58.420Z,2208.00
2019-05-19T12:03:58.388Z,2200.00
2019-05-19T12:04:58.418Z,2200.00
2019-05-19T12:05:58.484Z,2172.00
2019-05-19T12:06:58.399Z,2104.00
2019-05-19T12:07:58.358Z,2096.00
2019-05-19T12:08:58.399Z,2112.00
2019-05-19T12:09:58.324Z,2180.00
2019-05-19T12:10:58.373Z,2216.00
2019-05-19T12:11:58.307Z,2252.00
2019-05-19T12:12:58.302Z,2276.00
2019-05-19T12:13:58.358Z,2284.00
2019-05-19T12:14:58.291Z,2248.00
2019-05-19T12:15:58.379Z,2204.00
2019-05-19T12:16:58.507Z,2308.00
2019-05-19T12:17:58.251Z,2196.00
2019-05-19T12:18:58.241Z,2304.00
2019-05-19T12:19:58.248Z,2432.00
2019-05-19T12:20:58.267Z,2580.00
2019-05-19T12:21:58.226Z,2840.00
2019-05-19T12:22:58.196Z,2952.00
2019-05-19T12:23:58.165Z,3032.00
2019-05-19T12:24:58.172Z,3072.00
2019-05-19T12:25:58.325Z,3124.00
2019-05-19T12:26:58.204Z,3120.00
2019-05-19T12:27:58.187Z,2992.00